Aviation Digital Data Service (ADDS)

Output produced by METARs form (0024 UTC 20 April 2019)
found at http://www.aviationweather.gov/metar/data/
 
METAR text: WAMM 200000Z 00000KT 9999 FEW021 28/24 Q1010 NOSIG
Conditions at: WAMM (MENADO/SAM RATUL, ID) observed 0000 UTC 20 April 2019
Temperature: 28.0°C (82°F)
Dewpoint: 24.0°C (75°F) [RH = 79%]
Pressure (altimeter): 29.82 inches Hg (1010.0 mb)
Winds: calm
Visibility: 6 or more miles (10+ km)
Ceiling: at least 12,000 feet AGL
Clouds: few clouds at 2100 feet AGL
Weather: no significant weather observed at this time

METAR text: WAMM 192330Z 00000KT 9999 FEW021 25/25 Q1010 NOSIG
Conditions at: WAMM (MENADO/SAM RATUL, ID) observed 2330 UTC 19 April 2019
Temperature: 25.0°C (77°F)
Dewpoint: 25.0°C (77°F) [RH = 100%]
Pressure (altimeter): 29.82 inches Hg (1010.0 mb)
Winds: calm
Visibility: 6 or more miles (10+ km)
Ceiling: at least 12,000 feet AGL
Clouds: few clouds at 2100 feet AGL
Weather: no significant weather observed at this time

METAR text: WAMM 192300Z 00000KT 9000 FEW021 24/23 Q1010 NOSIG
Conditions at: WAMM (MENADO/SAM RATUL, ID) observed 2300 UTC 19 April 2019
Temperature: 24.0°C (75°F)
Dewpoint: 23.0°C (73°F) [RH = 94%]
Pressure (altimeter): 29.82 inches Hg (1010.0 mb)
Winds: calm
Visibility: 6 miles ( 9 km)
Ceiling: at least 12,000 feet AGL
Clouds: few clouds at 2100 feet AGL
Weather: no significant weather observed at this time

METAR text: WAMM 192230Z VRB01KT 9000 FEW022 23/23 Q1009 NOSIG
Conditions at: WAMM (MENADO/SAM RATUL, ID) observed 2230 UTC 19 April 2019
Temperature: 23.0°C (73°F)
Dewpoint: 23.0°C (73°F) [RH = 100%]
Pressure (altimeter): 29.79 inches Hg (1009.0 mb)
Winds: variable direction winds at 1 MPH (1 knots; 0.5 m/s)
Visibility: 6 miles ( 9 km)
Ceiling: at least 12,000 feet AGL
Clouds: few clouds at 2200 feet AGL
Weather: no significant weather observed at this time

METAR text: WAMM 192200Z 13001KT 9000 FEW022 23/22 Q1009 NOSIG
Conditions at: WAMM (MENADO/SAM RATUL, ID) observed 2200 UTC 19 April 2019
Temperature: 23.0°C (73°F)
Dewpoint: 22.0°C (72°F) [RH = 94%]
Pressure (altimeter): 29.79 inches Hg (1009.0 mb)
Winds: from the SE (130 degrees) at 1 MPH (1 knots; 0.5 m/s)
Visibility: 6 miles ( 9 km)
Ceiling: at least 12,000 feet AGL
Clouds: few clouds at 2200 feet AGL
Weather: no significant weather observed at this time

METAR text: WAMM 192130Z 00000KT 9000 FEW022 23/22 Q1009 NOSIG
Conditions at: WAMM (MENADO/SAM RATUL, ID) observed 2130 UTC 19 April 2019
Temperature: 23.0°C (73°F)
Dewpoint: 22.0°C (72°F) [RH = 94%]
Pressure (altimeter): 29.79 inches Hg (1009.0 mb)
Winds: calm
Visibility: 6 miles ( 9 km)
Ceiling: at least 12,000 feet AGL
Clouds: few clouds at 2200 feet AGL
Weather: no significant weather observed at this time

METAR text: WAMM 192100Z VRB02KT 9000 FEW022 23/22 Q1009 NOSIG
Conditions at: WAMM (MENADO/SAM RATUL, ID) observed 2100 UTC 19 April 2019
Temperature: 23.0°C (73°F)
Dewpoint: 22.0°C (72°F) [RH = 94%]
Pressure (altimeter): 29.79 inches Hg (1009.0 mb)
Winds: variable direction winds at 2 MPH (2 knots; 1.0 m/s)
Visibility: 6 miles ( 9 km)
Ceiling: at least 12,000 feet AGL
Clouds: few clouds at 2200 feet AGL
Weather: no significant weather observed at this time

METAR text: WAMM 192030Z 00000KT 9000 FEW022 23/22 Q1008 NOSIG
Conditions at: WAMM (MENADO/SAM RATUL, ID) observed 2030 UTC 19 April 2019
Temperature: 23.0°C (73°F)
Dewpoint: 22.0°C (72°F) [RH = 94%]
Pressure (altimeter): 29.76 inches Hg (1008.0 mb)
Winds: calm
Visibility: 6 miles ( 9 km)
Ceiling: at least 12,000 feet AGL
Clouds: few clouds at 2200 feet AGL
Weather: no significant weather observed at this time

METAR text: WAMM 192000Z VRB02KT 9000 FEW022 23/23 Q1008 NOSIG
Conditions at: WAMM (MENADO/SAM RATUL, ID) observed 2000 UTC 19 April 2019
Temperature: 23.0°C (73°F)
Dewpoint: 23.0°C (73°F) [RH = 100%]
Pressure (altimeter): 29.76 inches Hg (1008.0 mb)
Winds: variable direction winds at 2 MPH (2 knots; 1.0 m/s)
Visibility: 6 miles ( 9 km)
Ceiling: at least 12,000 feet AGL
Clouds: few clouds at 2200 feet AGL
Weather: no significant weather observed at this time

METAR text: WAMM 191930Z 00000KT 9000 FEW022 23/23 Q1008 NOSIG
Conditions at: WAMM (MENADO/SAM RATUL, ID) observed 1930 UTC 19 April 2019
Temperature: 23.0°C (73°F)
Dewpoint: 23.0°C (73°F) [RH = 100%]
Pressure (altimeter): 29.76 inches Hg (1008.0 mb)
Winds: calm
Visibility: 6 miles ( 9 km)
Ceiling: at least 12,000 feet AGL
Clouds: few clouds at 2200 feet AGL
Weather: no significant weather observed at this time

METAR text: WAMM 191900Z VRB02KT 9000 FEW022 23/23 Q1008 NOSIG
Conditions at: WAMM (MENADO/SAM RATUL, ID) observed 1900 UTC 19 April 2019
Temperature: 23.0°C (73°F)
Dewpoint: 23.0°C (73°F) [RH = 100%]
Pressure (altimeter): 29.76 inches Hg (1008.0 mb)
Winds: variable direction winds at 2 MPH (2 knots; 1.0 m/s)
Visibility: 6 miles ( 9 km)
Ceiling: at least 12,000 feet AGL
Clouds: few clouds at 2200 feet AGL
Weather: no significant weather observed at this time

METAR text: WAMM 191830Z VRB01KT 9000 FEW022 23/23 Q1008 NOSIG
Conditions at: WAMM (MENADO/SAM RATUL, ID) observed 1830 UTC 19 April 2019
Temperature: 23.0°C (73°F)
Dewpoint: 23.0°C (73°F) [RH = 100%]
Pressure (altimeter): 29.76 inches Hg (1008.0 mb)
Winds: variable direction winds at 1 MPH (1 knots; 0.5 m/s)
Visibility: 6 miles ( 9 km)
Ceiling: at least 12,000 feet AGL
Clouds: few clouds at 2200 feet AGL
Weather: no significant weather observed at this time

METAR text: WAMM 191800Z 00000KT 9000 FEW022 23/23 Q1008 NOSIG
Conditions at: WAMM (MENADO/SAM RATUL, ID) observed 1800 UTC 19 April 2019
Temperature: 23.0°C (73°F)
Dewpoint: 23.0°C (73°F) [RH = 100%]
Pressure (altimeter): 29.76 inches Hg (1008.0 mb)
Winds: calm
Visibility: 6 miles ( 9 km)
Ceiling: at least 12,000 feet AGL
Clouds: few clouds at 2200 feet AGL
Weather: no significant weather observed at this time

METAR text: WAMM 191730Z 07002KT 9000 FEW022 23/23 Q1010 NOSIG
Conditions at: WAMM (MENADO/SAM RATUL, ID) observed 1730 UTC 19 April 2019
Temperature: 23.0°C (73°F)
Dewpoint: 23.0°C (73°F) [RH = 100%]
Pressure (altimeter): 29.82 inches Hg (1010.0 mb)
Winds: from the ENE (70 degrees) at 2 MPH (2 knots; 1.0 m/s)
Visibility: 6 miles ( 9 km)
Ceiling: at least 12,000 feet AGL
Clouds: few clouds at 2200 feet AGL
Weather: no significant weather observed at this time

METAR text: WAMM 191700Z VRB02KT 9000 FEW022 23/23 Q1009 NOSIG
Conditions at: WAMM (MENADO/SAM RATUL, ID) observed 1700 UTC 19 April 2019
Temperature: 23.0°C (73°F)
Dewpoint: 23.0°C (73°F) [RH = 100%]
Pressure (altimeter): 29.79 inches Hg (1009.0 mb)
Winds: variable direction winds at 2 MPH (2 knots; 1.0 m/s)
Visibility: 6 miles ( 9 km)
Ceiling: at least 12,000 feet AGL
Clouds: few clouds at 2200 feet AGL
Weather: no significant weather observed at this time

METAR text: WAMM 191630Z VRB01KT 9000 FEW022 23/23 Q1009 NOSIG
Conditions at: WAMM (MENADO/SAM RATUL, ID) observed 1630 UTC 19 April 2019
Temperature: 23.0°C (73°F)
Dewpoint: 23.0°C (73°F) [RH = 100%]
Pressure (altimeter): 29.79 inches Hg (1009.0 mb)
Winds: variable direction winds at 1 MPH (1 knots; 0.5 m/s)
Visibility: 6 miles ( 9 km)
Ceiling: at least 12,000 feet AGL
Clouds: few clouds at 2200 feet AGL
Weather: no significant weather observed at this time

METAR text: WAMM 191600Z VRB02KT 9000 FEW022 24/23 Q1009 NOSIG
Conditions at: WAMM (MENADO/SAM RATUL, ID) observed 1600 UTC 19 April 2019
Temperature: 24.0°C (75°F)
Dewpoint: 23.0°C (73°F) [RH = 94%]
Pressure (altimeter): 29.79 inches Hg (1009.0 mb)
Winds: variable direction winds at 2 MPH (2 knots; 1.0 m/s)
Visibility: 6 miles ( 9 km)
Ceiling: at least 12,000 feet AGL
Clouds: few clouds at 2200 feet AGL
Weather: no significant weather observed at this time

METAR text: WAMM 191530Z VRB02KT 9000 FEW022 24/23 Q1009 NOSIG
Conditions at: WAMM (MENADO/SAM RATUL, ID) observed 1530 UTC 19 April 2019
Temperature: 24.0°C (75°F)
Dewpoint: 23.0°C (73°F) [RH = 94%]
Pressure (altimeter): 29.79 inches Hg (1009.0 mb)
Winds: variable direction winds at 2 MPH (2 knots; 1.0 m/s)
Visibility: 6 miles ( 9 km)
Ceiling: at least 12,000 feet AGL
Clouds: few clouds at 2200 feet AGL
Weather: no significant weather observed at this time

METAR text: WAMM 191500Z VRB01KT 9000 FEW022 24/23 Q1009 NOSIG
Conditions at: WAMM (MENADO/SAM RATUL, ID) observed 1500 UTC 19 April 2019
Temperature: 24.0°C (75°F)
Dewpoint: 23.0°C (73°F) [RH = 94%]
Pressure (altimeter): 29.79 inches Hg (1009.0 mb)
Winds: variable direction winds at 1 MPH (1 knots; 0.5 m/s)
Visibility: 6 miles ( 9 km)
Ceiling: at least 12,000 feet AGL
Clouds: few clouds at 2200 feet AGL
Weather: no significant weather observed at this time

METAR text: WAMM 191430Z VRB01KT 9000 FEW022 24/24 Q1009 NOSIG
Conditions at: WAMM (MENADO/SAM RATUL, ID) observed 1430 UTC 19 April 2019
Temperature: 24.0°C (75°F)
Dewpoint: 24.0°C (75°F) [RH = 100%]
Pressure (altimeter): 29.79 inches Hg (1009.0 mb)
Winds: variable direction winds at 1 MPH (1 knots; 0.5 m/s)
Visibility: 6 miles ( 9 km)
Ceiling: at least 12,000 feet AGL
Clouds: few clouds at 2200 feet AGL
Weather: no significant weather observed at this time

METAR text: WAMM 191400Z 00000KT 9000 FEW022 24/24 Q1009 NOSIG
Conditions at: WAMM (MENADO/SAM RATUL, ID) observed 1400 UTC 19 April 2019
Temperature: 24.0°C (75°F)
Dewpoint: 24.0°C (75°F) [RH = 100%]
Pressure (altimeter): 29.79 inches Hg (1009.0 mb)
Winds: calm
Visibility: 6 miles ( 9 km)
Ceiling: at least 12,000 feet AGL
Clouds: few clouds at 2200 feet AGL
Weather: no significant weather observed at this time

METAR text: WAMM 191330Z VRB02KT 9000 FEW022 25/24 Q1009 NOSIG
Conditions at: WAMM (MENADO/SAM RATUL, ID) observed 1330 UTC 19 April 2019
Temperature: 25.0°C (77°F)
Dewpoint: 24.0°C (75°F) [RH = 94%]
Pressure (altimeter): 29.79 inches Hg (1009.0 mb)
Winds: variable direction winds at 2 MPH (2 knots; 1.0 m/s)
Visibility: 6 miles ( 9 km)
Ceiling: at least 12,000 feet AGL
Clouds: few clouds at 2200 feet AGL
Weather: no significant weather observed at this time

METAR text: WAMM 191300Z VRB01KT 9000 FEW022 24/24 Q1009 NOSIG
Conditions at: WAMM (MENADO/SAM RATUL, ID) observed 1300 UTC 19 April 2019
Temperature: 24.0°C (75°F)
Dewpoint: 24.0°C (75°F) [RH = 100%]
Pressure (altimeter): 29.79 inches Hg (1009.0 mb)
Winds: variable direction winds at 1 MPH (1 knots; 0.5 m/s)
Visibility: 6 miles ( 9 km)
Ceiling: at least 12,000 feet AGL
Clouds: few clouds at 2200 feet AGL
Weather: no significant weather observed at this time

METAR text: WAMM 191230Z 06002KT 9999 FEW022 25/24 Q1008 NOSIG
Conditions at: WAMM (MENADO/SAM RATUL, ID) observed 1230 UTC 19 April 2019
Temperature: 25.0°C (77°F)
Dewpoint: 24.0°C (75°F) [RH = 94%]
Pressure (altimeter): 29.76 inches Hg (1008.0 mb)
Winds: from the ENE (60 degrees) at 2 MPH (2 knots; 1.0 m/s)
Visibility: 6 or more miles (10+ km)
Ceiling: at least 12,000 feet AGL
Clouds: few clouds at 2200 feet AGL
Weather: no significant weather observed at this time

METAR text: WAMM 191220Z 06002KT 9999 FEW022 25/24 Q1008 NOSIG
Conditions at: WAMM (MENADO/SAM RATUL, ID) observed 1220 UTC 19 April 2019
Temperature: 25.0°C (77°F)
Dewpoint: 24.0°C (75°F) [RH = 94%]
Pressure (altimeter): 29.76 inches Hg (1008.0 mb)
Winds: from the ENE (60 degrees) at 2 MPH (2 knots; 1.0 m/s)
Visibility: 6 or more miles (10+ km)
Ceiling: at least 12,000 feet AGL
Clouds: few clouds at 2200 feet AGL
Weather: no significant weather observed at this time

METAR text: WAMM 191200Z 00000KT 9999 FEW022 25/24 Q1008 NOSIG
Conditions at: WAMM (MENADO/SAM RATUL, ID) observed 1200 UTC 19 April 2019
Temperature: 25.0°C (77°F)
Dewpoint: 24.0°C (75°F) [RH = 94%]
Pressure (altimeter): 29.76 inches Hg (1008.0 mb)
Winds: calm
Visibility: 6 or more miles (10+ km)
Ceiling: at least 12,000 feet AGL
Clouds: few clouds at 2200 feet AGL
Weather: no significant weather observed at this time

METAR text: WAMM 191130Z 00000KT 9999 FEW022 25/24 Q1008 NOSIG
Conditions at: WAMM (MENADO/SAM RATUL, ID) observed 1130 UTC 19 April 2019
Temperature: 25.0°C (77°F)
Dewpoint: 24.0°C (75°F) [RH = 94%]
Pressure (altimeter): 29.76 inches Hg (1008.0 mb)
Winds: calm
Visibility: 6 or more miles (10+ km)
Ceiling: at least 12,000 feet AGL
Clouds: few clouds at 2200 feet AGL
Weather: no significant weather observed at this time

METAR text: WAMM 191100Z 10003KT 9999 FEW022 26/24 Q1008 NOSIG
Conditions at: WAMM (MENADO/SAM RATUL, ID) observed 1100 UTC 19 April 2019
Temperature: 26.0°C (79°F)
Dewpoint: 24.0°C (75°F) [RH = 89%]
Pressure (altimeter): 29.76 inches Hg (1008.0 mb)
Winds: from the E (100 degrees) at 3 MPH (3 knots; 1.5 m/s)
Visibility: 6 or more miles (10+ km)
Ceiling: at least 12,000 feet AGL
Clouds: few clouds at 2200 feet AGL
Weather: no significant weather observed at this time

METAR text: WAMM 191030Z 00000KT 9999 FEW022 27/24 Q1008 NOSIG
Conditions at: WAMM (MENADO/SAM RATUL, ID) observed 1030 UTC 19 April 2019
Temperature: 27.0°C (81°F)
Dewpoint: 24.0°C (75°F) [RH = 84%]
Pressure (altimeter): 29.76 inches Hg (1008.0 mb)
Winds: calm
Visibility: 6 or more miles (10+ km)
Ceiling: at least 12,000 feet AGL
Clouds: few clouds at 2200 feet AGL
Weather: no significant weather observed at this time

METAR text: WAMM 191000Z 06003KT 9999 FEW022 28/24 Q1007 NOSIG
Conditions at: WAMM (MENADO/SAM RATUL, ID) observed 1000 UTC 19 April 2019
Temperature: 28.0°C (82°F)
Dewpoint: 24.0°C (75°F) [RH = 79%]
Pressure (altimeter): 29.73 inches Hg (1007.0 mb)
Winds: from the ENE (60 degrees) at 3 MPH (3 knots; 1.5 m/s)
Visibility: 6 or more miles (10+ km)
Ceiling: at least 12,000 feet AGL
Clouds: few clouds at 2200 feet AGL
Weather: no significant weather observed at this time

METAR text: WAMM 190930Z 04004KT 9999 SCT022 28/24 Q1007 NOSIG
Conditions at: WAMM (MENADO/SAM RATUL, ID) observed 0930 UTC 19 April 2019
Temperature: 28.0°C (82°F)
Dewpoint: 24.0°C (75°F) [RH = 79%]
Pressure (altimeter): 29.73 inches Hg (1007.0 mb)
Winds: from the NE (40 degrees) at 5 MPH (4 knots; 2.1 m/s)
Visibility: 6 or more miles (10+ km)
Ceiling: at least 12,000 feet AGL
Clouds: scattered clouds at 2200 feet AGL
Weather: no significant weather observed at this time

METAR text: WAMM 190900Z 06004KT 9999 SCT021 30/24 Q1007 TEMPO -RA
Conditions at: WAMM (MENADO/SAM RATUL, ID) observed 0900 UTC 19 April 2019
Temperature: 30.0°C (86°F)
Dewpoint: 24.0°C (75°F) [RH = 70%]
Pressure (altimeter): 29.73 inches Hg (1007.0 mb)
Winds: from the ENE (60 degrees) at 5 MPH (4 knots; 2.1 m/s)
Visibility: 6 or more miles (10+ km)
Ceiling: at least 12,000 feet AGL
Clouds: scattered clouds at 2100 feet AGL
Weather: no significant weather observed at this time

METAR text: WAMM 190830Z 06005KT 9999 SCT021 32/24 Q1007 TEMPO -RA
Conditions at: WAMM (MENADO/SAM RATUL, ID) observed 0830 UTC 19 April 2019
Temperature: 32.0°C (90°F)
Dewpoint: 24.0°C (75°F) [RH = 63%]
Pressure (altimeter): 29.73 inches Hg (1007.0 mb)
Winds: from the ENE (60 degrees) at 6 MPH (5 knots; 2.6 m/s)
Visibility: 6 or more miles (10+ km)
Ceiling: at least 12,000 feet AGL
Clouds: scattered clouds at 2100 feet AGL
Weather: no significant weather observed at this time

METAR text: WAMM 190800Z 04005KT 9999 SCT021 32/25 Q1007 TEMPO -RA
Conditions at: WAMM (MENADO/SAM RATUL, ID) observed 0800 UTC 19 April 2019
Temperature: 32.0°C (90°F)
Dewpoint: 25.0°C (77°F) [RH = 67%]
Pressure (altimeter): 29.73 inches Hg (1007.0 mb)
Winds: from the NE (40 degrees) at 6 MPH (5 knots; 2.6 m/s)
Visibility: 6 or more miles (10+ km)
Ceiling: at least 12,000 feet AGL
Clouds: scattered clouds at 2100 feet AGL
Weather: no significant weather observed at this time

METAR text: WAMM 190730Z 06005KT 9999 SCT021 32/24 Q1007 NOSIG
Conditions at: WAMM (MENADO/SAM RATUL, ID) observed 0730 UTC 19 April 2019
Temperature: 32.0°C (90°F)
Dewpoint: 24.0°C (75°F) [RH = 63%]
Pressure (altimeter): 29.73 inches Hg (1007.0 mb)
Winds: from the ENE (60 degrees) at 6 MPH (5 knots; 2.6 m/s)
Visibility: 6 or more miles (10+ km)
Ceiling: at least 12,000 feet AGL
Clouds: scattered clouds at 2100 feet AGL
Weather: no significant weather observed at this time

METAR text: WAMM 190700Z 04005KT 9999 SCT021 34/25 Q1007 NOSIG
Conditions at: WAMM (MENADO/SAM RATUL, ID) observed 0700 UTC 19 April 2019
Temperature: 34.0°C (93°F)
Dewpoint: 25.0°C (77°F) [RH = 60%]
Pressure (altimeter): 29.73 inches Hg (1007.0 mb)
Winds: from the NE (40 degrees) at 6 MPH (5 knots; 2.6 m/s)
Visibility: 6 or more miles (10+ km)
Ceiling: at least 12,000 feet AGL
Clouds: scattered clouds at 2100 feet AGL
Weather: no significant weather observed at this time

METAR text: WAMM 190630Z 32003KT 9999 SCT021 31/25 Q1007 NOSIG
Conditions at: WAMM (MENADO/SAM RATUL, ID) observed 0630 UTC 19 April 2019
Temperature: 31.0°C (88°F)
Dewpoint: 25.0°C (77°F) [RH = 71%]
Pressure (altimeter): 29.73 inches Hg (1007.0 mb)
Winds: from the NW (320 degrees) at 3 MPH (3 knots; 1.5 m/s)
Visibility: 6 or more miles (10+ km)
Ceiling: at least 12,000 feet AGL
Clouds: scattered clouds at 2100 feet AGL
Weather: no significant weather observed at this time

METAR text: WAMM 190600Z 35001KT 9999 SCT021 29/24 Q1008 NOSIG
Conditions at: WAMM (MENADO/SAM RATUL, ID) observed 0600 UTC 19 April 2019
Temperature: 29.0°C (84°F)
Dewpoint: 24.0°C (75°F) [RH = 74%]
Pressure (altimeter): 29.76 inches Hg (1008.0 mb)
Winds: from the N (350 degrees) at 1 MPH (1 knots; 0.5 m/s)
Visibility: 6 or more miles (10+ km)
Ceiling: at least 12,000 feet AGL
Clouds: scattered clouds at 2100 feet AGL
Weather: no significant weather observed at this time

METAR text: WAMM 190530Z 29003KT 9999 SCT022 29/24 Q1008 TEMPO -RA
Conditions at: WAMM (MENADO/SAM RATUL, ID) observed 0530 UTC 19 April 2019
Temperature: 29.0°C (84°F)
Dewpoint: 24.0°C (75°F) [RH = 74%]
Pressure (altimeter): 29.76 inches Hg (1008.0 mb)
Winds: from the WNW (290 degrees) at 3 MPH (3 knots; 1.5 m/s)
Visibility: 6 or more miles (10+ km)
Ceiling: at least 12,000 feet AGL
Clouds: scattered clouds at 2200 feet AGL
Weather: no significant weather observed at this time

METAR text: WAMM 190500Z VRB05KT 9999 SCT022 30/24 Q1009 TEMPO -RA
Conditions at: WAMM (MENADO/SAM RATUL, ID) observed 0500 UTC 19 April 2019
Temperature: 30.0°C (86°F)
Dewpoint: 24.0°C (75°F) [RH = 70%]
Pressure (altimeter): 29.79 inches Hg (1009.0 mb)
Winds: variable direction winds at 6 MPH (5 knots; 2.6 m/s)
Visibility: 6 or more miles (10+ km)
Ceiling: at least 12,000 feet AGL
Clouds: scattered clouds at 2200 feet AGL
Weather: no significant weather observed at this time

METAR text: WAMM 190430Z 06006KT 9999 SCT022 34/25 Q1009 TEMPO -RA
Conditions at: WAMM (MENADO/SAM RATUL, ID) observed 0430 UTC 19 April 2019
Temperature: 34.0°C (93°F)
Dewpoint: 25.0°C (77°F) [RH = 60%]
Pressure (altimeter): 29.79 inches Hg (1009.0 mb)
Winds: from the ENE (60 degrees) at 7 MPH (6 knots; 3.1 m/s)
Visibility: 6 or more miles (10+ km)
Ceiling: at least 12,000 feet AGL
Clouds: scattered clouds at 2200 feet AGL
Weather: no significant weather observed at this time

METAR text: WAMM 190400Z 04007KT 9999 SCT022 35/25 Q1009 NOSIG
Conditions at: WAMM (MENADO/SAM RATUL, ID) observed 0400 UTC 19 April 2019
Temperature: 35.0°C (95°F)
Dewpoint: 25.0°C (77°F) [RH = 56%]
Pressure (altimeter): 29.79 inches Hg (1009.0 mb)
Winds: from the NE (40 degrees) at 8 MPH (7 knots; 3.6 m/s)
Visibility: 6 or more miles (10+ km)
Ceiling: at least 12,000 feet AGL
Clouds: scattered clouds at 2200 feet AGL
Weather: no significant weather observed at this time

METAR text: WAMM 190330Z 09004KT 9999 SCT021 33/25 Q1010 NOSIG
Conditions at: WAMM (MENADO/SAM RATUL, ID) observed 0330 UTC 19 April 2019
Temperature: 33.0°C (91°F)
Dewpoint: 25.0°C (77°F) [RH = 63%]
Pressure (altimeter): 29.82 inches Hg (1010.0 mb)
Winds: from the E (90 degrees) at 5 MPH (4 knots; 2.1 m/s)
Visibility: 6 or more miles (10+ km)
Ceiling: at least 12,000 feet AGL
Clouds: scattered clouds at 2100 feet AGL
Weather: no significant weather observed at this time

METAR text: WAMM 190300Z 03005KT 9999 SCT021 35/25 Q1010 NOSIG
Conditions at: WAMM (MENADO/SAM RATUL, ID) observed 0300 UTC 19 April 2019
Temperature: 35.0°C (95°F)
Dewpoint: 25.0°C (77°F) [RH = 56%]
Pressure (altimeter): 29.82 inches Hg (1010.0 mb)
Winds: from the NNE (30 degrees) at 6 MPH (5 knots; 2.6 m/s)
Visibility: 6 or more miles (10+ km)
Ceiling: at least 12,000 feet AGL
Clouds: scattered clouds at 2100 feet AGL
Weather: no significant weather observed at this time

METAR text: WAMM 190230Z 09004KT 9999 SCT021 33/25 Q1010 NOSIG
Conditions at: WAMM (MENADO/SAM RATUL, ID) observed 0230 UTC 19 April 2019
Temperature: 33.0°C (91°F)
Dewpoint: 25.0°C (77°F) [RH = 63%]
Pressure (altimeter): 29.82 inches Hg (1010.0 mb)
Winds: from the E (90 degrees) at 5 MPH (4 knots; 2.1 m/s)
Visibility: 6 or more miles (10+ km)
Ceiling: at least 12,000 feet AGL
Clouds: scattered clouds at 2100 feet AGL
Weather: no significant weather observed at this time

METAR text: WAMM 190200Z 10005KT 9999 SCT021 32/25 Q1010 NOSIG
Conditions at: WAMM (MENADO/SAM RATUL, ID) observed 0200 UTC 19 April 2019
Temperature: 32.0°C (90°F)
Dewpoint: 25.0°C (77°F) [RH = 67%]
Pressure (altimeter): 29.82 inches Hg (1010.0 mb)
Winds: from the E (100 degrees) at 6 MPH (5 knots; 2.6 m/s)
Visibility: 6 or more miles (10+ km)
Ceiling: at least 12,000 feet AGL
Clouds: scattered clouds at 2100 feet AGL
Weather: no significant weather observed at this time

METAR text: WAMM 190130Z 02004KT 9999 SCT021 32/25 Q1011 NOSIG
Conditions at: WAMM (MENADO/SAM RATUL, ID) observed 0130 UTC 19 April 2019
Temperature: 32.0°C (90°F)
Dewpoint: 25.0°C (77°F) [RH = 67%]
Pressure (altimeter): 29.85 inches Hg (1011.0 mb)
Winds: from the NNE (20 degrees) at 5 MPH (4 knots; 2.1 m/s)
Visibility: 6 or more miles (10+ km)
Ceiling: at least 12,000 feet AGL
Clouds: scattered clouds at 2100 feet AGL
Weather: no significant weather observed at this time

METAR text: WAMM 190100Z 10001KT 9999 SCT021 33/26 Q1011 NOSIG
Conditions at: WAMM (MENADO/SAM RATUL, ID) observed 0100 UTC 19 April 2019
Temperature: 33.0°C (91°F)
Dewpoint: 26.0°C (79°F) [RH = 67%]
Pressure (altimeter): 29.85 inches Hg (1011.0 mb)
Winds: from the E (100 degrees) at 1 MPH (1 knots; 0.5 m/s)
Visibility: 6 or more miles (10+ km)
Ceiling: at least 12,000 feet AGL
Clouds: scattered clouds at 2100 feet AGL
Weather: no significant weather observed at this time

METAR text: WAMM 190030Z 06002KT 9999 FEW022 32/25 Q1011 NOSIG
Conditions at: WAMM (MENADO/SAM RATUL, ID) observed 0030 UTC 19 April 2019
Temperature: 32.0°C (90°F)
Dewpoint: 25.0°C (77°F) [RH = 67%]
Pressure (altimeter): 29.85 inches Hg (1011.0 mb)
Winds: from the ENE (60 degrees) at 2 MPH (2 knots; 1.0 m/s)
Visibility: 6 or more miles (10+ km)
Ceiling: at least 12,000 feet AGL
Clouds: few clouds at 2200 feet AGL
Weather: no significant weather observed at this time

METAR text: WAMM 190000Z 35001KT 9999 FEW022 29/28 Q1011 NOSIG
Conditions at: WAMM (MENADO/SAM RATUL, ID) observed 0000 UTC 19 April 2019
Temperature: 29.0°C (84°F)
Dewpoint: 28.0°C (82°F) [RH = 94%]
Pressure (altimeter): 29.85 inches Hg (1011.0 mb)
Winds: from the N (350 degrees) at 1 MPH (1 knots; 0.5 m/s)
Visibility: 6 or more miles (10+ km)
Ceiling: at least 12,000 feet AGL
Clouds: few clouds at 2200 feet AGL
Weather: no significant weather observed at this time

METAR text: WAMM 182330Z 00000KT 9999 FEW020 27/24 Q1011 NOSIG
Conditions at: WAMM (MENADO/SAM RATUL, ID) observed 2330 UTC 18 April 2019
Temperature: 27.0°C (81°F)
Dewpoint: 24.0°C (75°F) [RH = 84%]
Pressure (altimeter): 29.85 inches Hg (1011.0 mb)
Winds: calm
Visibility: 6 or more miles (10+ km)
Ceiling: at least 12,000 feet AGL
Clouds: few clouds at 2000 feet AGL
Weather: no significant weather observed at this time

METAR text: WAMM 182300Z 02002KT 9999 FEW020 25/23 Q1010 NOSIG
Conditions at: WAMM (MENADO/SAM RATUL, ID) observed 2300 UTC 18 April 2019
Temperature: 25.0°C (77°F)
Dewpoint: 23.0°C (73°F) [RH = 89%]
Pressure (altimeter): 29.82 inches Hg (1010.0 mb)
Winds: from the NNE (20 degrees) at 2 MPH (2 knots; 1.0 m/s)
Visibility: 6 or more miles (10+ km)
Ceiling: at least 12,000 feet AGL
Clouds: few clouds at 2000 feet AGL
Weather: no significant weather observed at this time

METAR text: WAMM 182230Z 02002KT 9000 SCT020 24/23 Q1010 NOSIG
Conditions at: WAMM (MENADO/SAM RATUL, ID) observed 2230 UTC 18 April 2019
Temperature: 24.0°C (75°F)
Dewpoint: 23.0°C (73°F) [RH = 94%]
Pressure (altimeter): 29.82 inches Hg (1010.0 mb)
Winds: from the NNE (20 degrees) at 2 MPH (2 knots; 1.0 m/s)
Visibility: 6 miles ( 9 km)
Ceiling: at least 12,000 feet AGL
Clouds: scattered clouds at 2000 feet AGL
Weather: no significant weather observed at this time

METAR text: WAMM 182200Z 00000KT 9000 SCT020 24/23 Q1010 NOSIG
Conditions at: WAMM (MENADO/SAM RATUL, ID) observed 2200 UTC 18 April 2019
Temperature: 24.0°C (75°F)
Dewpoint: 23.0°C (73°F) [RH = 94%]
Pressure (altimeter): 29.82 inches Hg (1010.0 mb)
Winds: calm
Visibility: 6 miles ( 9 km)
Ceiling: at least 12,000 feet AGL
Clouds: scattered clouds at 2000 feet AGL
Weather: no significant weather observed at this time

METAR text: WAMM 182130Z 00000KT 9000 FEW019CB SCT020 23/20 Q1010 NOSIG
Conditions at: WAMM (MENADO/SAM RATUL, ID) observed 2130 UTC 18 April 2019
Temperature: 23.0°C (73°F)
Dewpoint: 20.0°C (68°F) [RH = 83%]
Pressure (altimeter): 29.82 inches Hg (1010.0 mb)
Winds: calm
Visibility: 6 miles ( 9 km)
Ceiling: at least 12,000 feet AGL
Clouds: few clouds at 1900 feet AGL
scattered clouds at 2000 feet AGL
Weather: no significant weather observed at this time

METAR text: WAMM 182100Z 00000KT 9000 SCT021 23/22 Q1009 NOSIG
Conditions at: WAMM (MENADO/SAM RATUL, ID) observed 2100 UTC 18 April 2019
Temperature: 23.0°C (73°F)
Dewpoint: 22.0°C (72°F) [RH = 94%]
Pressure (altimeter): 29.79 inches Hg (1009.0 mb)
Winds: calm
Visibility: 6 miles ( 9 km)
Ceiling: at least 12,000 feet AGL
Clouds: scattered clouds at 2100 feet AGL
Weather: no significant weather observed at this time

METAR text: WAMM 182030Z 15002KT 9000 SCT021 24/21 Q1009 NOSIG
Conditions at: WAMM (MENADO/SAM RATUL, ID) observed 2030 UTC 18 April 2019
Temperature: 24.0°C (75°F)
Dewpoint: 21.0°C (70°F) [RH = 83%]
Pressure (altimeter): 29.79 inches Hg (1009.0 mb)
Winds: from the SSE (150 degrees) at 2 MPH (2 knots; 1.0 m/s)
Visibility: 6 miles ( 9 km)
Ceiling: at least 12,000 feet AGL
Clouds: scattered clouds at 2100 feet AGL
Weather: no significant weather observed at this time

METAR text: WAMM 182000Z 00000KT 9000 SCT021 23/22 Q1009 NOSIG
Conditions at: WAMM (MENADO/SAM RATUL, ID) observed 2000 UTC 18 April 2019
Temperature: 23.0°C (73°F)
Dewpoint: 22.0°C (72°F) [RH = 94%]
Pressure (altimeter): 29.79 inches Hg (1009.0 mb)
Winds: calm
Visibility: 6 miles ( 9 km)
Ceiling: at least 12,000 feet AGL
Clouds: scattered clouds at 2100 feet AGL
Weather: no significant weather observed at this time

METAR text: WAMM 181930Z 00000KT 9000 SCT021 24/22 Q1010 NOSIG
Conditions at: WAMM (MENADO/SAM RATUL, ID) observed 1930 UTC 18 April 2019
Temperature: 24.0°C (75°F)
Dewpoint: 22.0°C (72°F) [RH = 89%]
Pressure (altimeter): 29.82 inches Hg (1010.0 mb)
Winds: calm
Visibility: 6 miles ( 9 km)
Ceiling: at least 12,000 feet AGL
Clouds: scattered clouds at 2100 feet AGL
Weather: no significant weather observed at this time

METAR text: WAMM 181900Z 17002KT 9000 SCT021 24/23 Q1010 NOSIG
Conditions at: WAMM (MENADO/SAM RATUL, ID) observed 1900 UTC 18 April 2019
Temperature: 24.0°C (75°F)
Dewpoint: 23.0°C (73°F) [RH = 94%]
Pressure (altimeter): 29.82 inches Hg (1010.0 mb)
Winds: from the S (170 degrees) at 2 MPH (2 knots; 1.0 m/s)
Visibility: 6 miles ( 9 km)
Ceiling: at least 12,000 feet AGL
Clouds: scattered clouds at 2100 feet AGL
Weather: no significant weather observed at this time

METAR text: WAMM 181830Z 00000KT 9000 SCT021 24/23 Q1010 NOSIG
Conditions at: WAMM (MENADO/SAM RATUL, ID) observed 1830 UTC 18 April 2019
Temperature: 24.0°C (75°F)
Dewpoint: 23.0°C (73°F) [RH = 94%]
Pressure (altimeter): 29.82 inches Hg (1010.0 mb)
Winds: calm
Visibility: 6 miles ( 9 km)
Ceiling: at least 12,000 feet AGL
Clouds: scattered clouds at 2100 feet AGL
Weather: no significant weather observed at this time

METAR text: WAMM 181800Z 12002KT 9000 FEW021 24/23 Q1010 NOSIG
Conditions at: WAMM (MENADO/SAM RATUL, ID) observed 1800 UTC 18 April 2019
Temperature: 24.0°C (75°F)
Dewpoint: 23.0°C (73°F) [RH = 94%]
Pressure (altimeter): 29.82 inches Hg (1010.0 mb)
Winds: from the ESE (120 degrees) at 2 MPH (2 knots; 1.0 m/s)
Visibility: 6 miles ( 9 km)
Ceiling: at least 12,000 feet AGL
Clouds: few clouds at 2100 feet AGL
Weather: no significant weather observed at this time

METAR text: WAMM 181730Z 04003KT 9000 FEW021 24/23 Q1010 NOSIG
Conditions at: WAMM (MENADO/SAM RATUL, ID) observed 1730 UTC 18 April 2019
Temperature: 24.0°C (75°F)
Dewpoint: 23.0°C (73°F) [RH = 94%]
Pressure (altimeter): 29.82 inches Hg (1010.0 mb)
Winds: from the NE (40 degrees) at 3 MPH (3 knots; 1.5 m/s)
Visibility: 6 miles ( 9 km)
Ceiling: at least 12,000 feet AGL
Clouds: few clouds at 2100 feet AGL
Weather: no significant weather observed at this time

METAR text: WAMM 181700Z 00000KT 9000 FEW021 24/23 Q1010 NOSIG
Conditions at: WAMM (MENADO/SAM RATUL, ID) observed 1700 UTC 18 April 2019
Temperature: 24.0°C (75°F)
Dewpoint: 23.0°C (73°F) [RH = 94%]
Pressure (altimeter): 29.82 inches Hg (1010.0 mb)
Winds: calm
Visibility: 6 miles ( 9 km)
Ceiling: at least 12,000 feet AGL
Clouds: few clouds at 2100 feet AGL
Weather: no significant weather observed at this time

METAR text: WAMM 181630Z 00000KT 9000 FEW021 25/24 Q1011 NOSIG
Conditions at: WAMM (MENADO/SAM RATUL, ID) observed 1630 UTC 18 April 2019
Temperature: 25.0°C (77°F)
Dewpoint: 24.0°C (75°F) [RH = 94%]
Pressure (altimeter): 29.85 inches Hg (1011.0 mb)
Winds: calm
Visibility: 6 miles ( 9 km)
Ceiling: at least 12,000 feet AGL
Clouds: few clouds at 2100 feet AGL
Weather: no significant weather observed at this time

METAR text: WAMM 181600Z 00000KT 9000 FEW021 25/24 Q1011 NOSIG
Conditions at: WAMM (MENADO/SAM RATUL, ID) observed 1600 UTC 18 April 2019
Temperature: 25.0°C (77°F)
Dewpoint: 24.0°C (75°F) [RH = 94%]
Pressure (altimeter): 29.85 inches Hg (1011.0 mb)
Winds: calm
Visibility: 6 miles ( 9 km)
Ceiling: at least 12,000 feet AGL
Clouds: few clouds at 2100 feet AGL
Weather: no significant weather observed at this time

METAR text: WAMM 181530Z 14002KT 9000 FEW021 25/24 Q1011 NOSIG
Conditions at: WAMM (MENADO/SAM RATUL, ID) observed 1530 UTC 18 April 2019
Temperature: 25.0°C (77°F)
Dewpoint: 24.0°C (75°F) [RH = 94%]
Pressure (altimeter): 29.85 inches Hg (1011.0 mb)
Winds: from the SE (140 degrees) at 2 MPH (2 knots; 1.0 m/s)
Visibility: 6 miles ( 9 km)
Ceiling: at least 12,000 feet AGL
Clouds: few clouds at 2100 feet AGL
Weather: no significant weather observed at this time

METAR text: WAMM 181500Z 21003KT 9000 FEW021 25/24 Q1011 NOSIG
Conditions at: WAMM (MENADO/SAM RATUL, ID) observed 1500 UTC 18 April 2019
Temperature: 25.0°C (77°F)
Dewpoint: 24.0°C (75°F) [RH = 94%]
Pressure (altimeter): 29.85 inches Hg (1011.0 mb)
Winds: from the SSW (210 degrees) at 3 MPH (3 knots; 1.5 m/s)
Visibility: 6 miles ( 9 km)
Ceiling: at least 12,000 feet AGL
Clouds: few clouds at 2100 feet AGL
Weather: no significant weather observed at this time

METAR text: WAMM 181430Z 15002KT 9000 FEW021 25/24 Q1011 NOSIG
Conditions at: WAMM (MENADO/SAM RATUL, ID) observed 1430 UTC 18 April 2019
Temperature: 25.0°C (77°F)
Dewpoint: 24.0°C (75°F) [RH = 94%]
Pressure (altimeter): 29.85 inches Hg (1011.0 mb)
Winds: from the SSE (150 degrees) at 2 MPH (2 knots; 1.0 m/s)
Visibility: 6 miles ( 9 km)
Ceiling: at least 12,000 feet AGL
Clouds: few clouds at 2100 feet AGL
Weather: no significant weather observed at this time

METAR text: WAMM 181400Z 02002KT 9000 FEW021 25/24 Q1011 NOSIG
Conditions at: WAMM (MENADO/SAM RATUL, ID) observed 1400 UTC 18 April 2019
Temperature: 25.0°C (77°F)
Dewpoint: 24.0°C (75°F) [RH = 94%]
Pressure (altimeter): 29.85 inches Hg (1011.0 mb)
Winds: from the NNE (20 degrees) at 2 MPH (2 knots; 1.0 m/s)
Visibility: 6 miles ( 9 km)
Ceiling: at least 12,000 feet AGL
Clouds: few clouds at 2100 feet AGL
Weather: no significant weather observed at this time

METAR text: WAMM 181330Z 00000KT 9000 FEW021 25/24 Q1011 NOSIG
Conditions at: WAMM (MENADO/SAM RATUL, ID) observed 1330 UTC 18 April 2019
Temperature: 25.0°C (77°F)
Dewpoint: 24.0°C (75°F) [RH = 94%]
Pressure (altimeter): 29.85 inches Hg (1011.0 mb)
Winds: calm
Visibility: 6 miles ( 9 km)
Ceiling: at least 12,000 feet AGL
Clouds: few clouds at 2100 feet AGL
Weather: no significant weather observed at this time

METAR text: WAMM 181300Z 16002KT 9000 FEW021 25/24 Q1011 NOSIG
Conditions at: WAMM (MENADO/SAM RATUL, ID) observed 1300 UTC 18 April 2019
Temperature: 25.0°C (77°F)
Dewpoint: 24.0°C (75°F) [RH = 94%]
Pressure (altimeter): 29.85 inches Hg (1011.0 mb)
Winds: from the SSE (160 degrees) at 2 MPH (2 knots; 1.0 m/s)
Visibility: 6 miles ( 9 km)
Ceiling: at least 12,000 feet AGL
Clouds: few clouds at 2100 feet AGL
Weather: no significant weather observed at this time

METAR text: WAMM 181230Z 00000KT 9000 FEW021 25/24 Q1011 NOSIG
Conditions at: WAMM (MENADO/SAM RATUL, ID) observed 1230 UTC 18 April 2019
Temperature: 25.0°C (77°F)
Dewpoint: 24.0°C (75°F) [RH = 94%]
Pressure (altimeter): 29.85 inches Hg (1011.0 mb)
Winds: calm
Visibility: 6 miles ( 9 km)
Ceiling: at least 12,000 feet AGL
Clouds: few clouds at 2100 feet AGL
Weather: no significant weather observed at this time

Forecast for: WAMM (MENADO/SAM RATUL, ID)
Text: TAF WAMM 192300Z 2000/2106 04008KT 9999 SCT022
Forecast period: 0000 to 0900 UTC 20 April 2019
Forecast type: FROM: standard forecast or significant change
Winds: from the NE (40 degrees) at 9 MPH (8 knots; 4.1 m/s)
Visibility: 6 or more miles 10+ km)
Ceiling: at least 12,000 feet AGL
Clouds: scattered clouds at 2200 feet AGL
Weather: no significant weather forecast for this period
Text: TEMPO 2003/2007 6000 -RA FEW017CB SCT018
Forecast period: 0300 to 0700 UTC 20 April 2019
Forecast type: TEMPORARY: The following changes expected for less than half the time period
Visibility: 4 miles (6 km)
Ceiling: at least 12,000 feet AGL
Clouds: few clouds at 1700 feet AGL
scattered clouds at 1800 feet AGL
Weather: -RA  (light rain)
Text: BECMG 2009/2011 08002KT
Forecast period: 0900 UTC 20 April 2019 to 0600 UTC 21 April 2019
Forecast type: BECOMING: Conditions expected to become as follows by 1100 UTC 20 April 2019
Winds: from the E (80 degrees) at 2 MPH (2 knots; 1.0 m/s)
Visibility: 6 or more miles 10+ km)
Ceiling: at least 12,000 feet AGL
Clouds: scattered clouds at 2200 feet AGL
Weather: no significant weather forecast for this period